Time;durP1;ratioP1;P1;durP2;ratioP2;P2;SDS_P1;SDS_P2;PMS_P1;PMS_P2;Temp;Humidity;BMP_temperature;BMP_pressure;BME280_temperature;BME280_humidity;BME280_pressure;Samples;Min_cycle;Max_cycle;Signal;HPM_P1;HPM_P2
2022/12/09 00:00:03;;;;;;;9.25;4.95;;;;;;;;;;4919276;29;20442;-82
2022/12/09 00:02:30;;;;;;;8.48;5.30;;;;;;;;;;4919103;29;20032;-87
2022/12/09 00:04:55;;;;;;;8.43;5.15;;;;;;;;;;4918995;29;20103;-84
2022/12/09 00:07:21;;;;;;;8.80;5.53;;;;;;;;;;4918748;29;20482;-87
2022/12/09 00:09:46;;;;;;;9.15;4.95;;;;;;;;;;4901692;29;20462;-86
2022/12/09 00:12:11;;;;;;;7.93;4.15;;;;;;;;;;4918778;29;20127;-84
2022/12/09 00:14:37;;;;;;;6.93;4.18;;;;;;;;;;4918751;29;20047;-83
2022/12/09 00:17:02;;;;;;;18.25;6.60;;;;;;;;;;4903381;29;20044;-85
2022/12/09 00:19:28;;;;;;;28.45;8.35;;;;;;;;;;4902807;29;20088;-82
2022/12/09 00:21:53;;;;;;;22.88;7.63;;;;;;;;;;4920720;29;20525;-84
2022/12/09 00:24:19;;;;;;;24.88;8.10;;;;;;;;;;4920086;29;20043;-85
2022/12/09 00:26:44;;;;;;;21.88;7.20;;;;;;;;;;4926160;29;20064;-84
2022/12/09 00:29:10;;;;;;;21.38;6.47;;;;;;;;;;4901155;29;20480;-85
2022/12/09 00:31:37;;;;;;;12.93;6.35;;;;;;;;;;4901186;29;20397;-85
2022/12/09 00:34:10;;;;;;;10.55;5.40;;;;;;;;;;4900965;29;20135;-86
2022/12/09 00:36:37;;;;;;;8.57;4.50;;;;;;;;;;4886497;29;20043;-84
2022/12/09 00:39:03;;;;;;;5.90;3.60;;;;;;;;;;4900725;29;20036;-84
2022/12/09 00:41:28;;;;;;;5.82;3.50;;;;;;;;;;4918416;29;20032;-85
2022/12/09 00:43:55;;;;;;;6.93;3.72;;;;;;;;;;4901048;29;20036;-84
2022/12/09 00:46:21;;;;;;;6.28;3.83;;;;;;;;;;4917784;29;20043;-84
2022/12/09 00:48:46;;;;;;;7.72;4.20;;;;;;;;;;4918031;29;20327;-85
2022/12/09 00:51:21;;;;;;;8.05;4.10;;;;;;;;;;4917408;29;20040;-84
2022/12/09 00:53:46;;;;;;;7.47;4.30;;;;;;;;;;4900446;29;20453;-85
2022/12/09 00:56:12;;;;;;;6.07;3.80;;;;;;;;;;4916830;29;20040;-85
2022/12/09 00:58:38;;;;;;;7.50;4.30;;;;;;;;;;4900036;29;20489;-85
2022/12/09 01:01:04;;;;;;;7.38;3.72;;;;;;;;;;4900444;29;20039;-86
2022/12/09 01:03:29;;;;;;;7.20;3.50;;;;;;;;;;4903259;29;20056;-84
2022/12/09 01:05:55;;;;;;;6.53;3.40;;;;;;;;;;4904090;29;20036;-84
2022/12/09 01:08:21;;;;;;;7.05;3.28;;;;;;;;;;4903715;29;20131;-85
2022/12/09 01:10:47;;;;;;;6.35;3.78;;;;;;;;;;4903561;29;20493;-86
2022/12/09 01:13:14;;;;;;;6.47;3.63;;;;;;;;;;4925502;29;20043;-85
2022/12/09 01:15:40;;;;;;;5.43;3.08;;;;;;;;;;4938797;23;21383;-81
2022/12/09 01:18:06;;;;;;;5.30;2.83;;;;;;;;;;4905660;29;20077;-81
2022/12/09 01:20:33;;;;;;;5.95;3.30;;;;;;;;;;4888773;29;20044;-81
2022/12/09 01:22:59;;;;;;;6.07;3.20;;;;;;;;;;4905096;29;20128;-80
2022/12/09 01:25:24;;;;;;;9.95;4.78;;;;;;;;;;4887633;29;20033;-81
2022/12/09 01:27:49;;;;;;;6.50;3.85;;;;;;;;;;4869876;29;20036;-81
2022/12/09 01:30:15;;;;;;;6.53;3.83;;;;;;;;;;4871750;29;20044;-82
2022/12/09 01:32:41;;;;;;;7.57;4.07;;;;;;;;;;4873334;29;20076;-81
2022/12/09 01:35:07;;;;;;;6.63;3.45;;;;;;;;;;4872932;29;20033;-82
2022/12/09 01:37:35;;;;;;;5.82;3.50;;;;;;;;;;4873373;29;20041;-82
2022/12/09 01:40:05;;;;;;;5.28;3.30;;;;;;;;;;4873285;29;20499;-81
2022/12/09 01:42:32;;;;;;;5.45;3.35;;;;;;;;;;4857720;29;20043;-81
2022/12/09 01:45:29;;;;;;;8.43;3.33;;;;;;;;;;4857113;29;20041;-82
2022/12/09 01:48:13;;;;;;;7.47;3.08;;;;;;;;;;4873229;29;20041;-82
2022/12/09 01:50:49;;;;;;;6.25;3.15;;;;;;;;;;4857448;29;20070;-82
2022/12/09 01:53:17;;;;;;;4.70;2.88;;;;;;;;;;4872608;29;20041;-82
2022/12/09 01:55:43;;;;;;;4.97;3.28;;;;;;;;;;4872344;29;20029;-82
2022/12/09 01:58:09;;;;;;;4.60;3.08;;;;;;;;;;4873401;29;20037;-80
2022/12/09 02:00:34;;;;;;;5.55;3.25;;;;;;;;;;4873197;29;20521;-82
2022/12/09 02:03:01;;;;;;;5.30;3.10;;;;;;;;;;4873542;29;20041;-82
2022/12/09 02:05:29;;;;;;;5.10;2.72;;;;;;;;;;4873174;29;20048;-82
2022/12/09 02:07:57;;;;;;;5.53;3.13;;;;;;;;;;4872256;29;20064;-82
2022/12/09 02:10:23;;;;;;;4.07;2.65;;;;;;;;;;4873117;29;20032;-81
2022/12/09 02:13:16;;;;;;;4.30;2.67;;;;;;;;;;4859956;29;20048;-82
2022/12/09 02:15:49;;;;;;;4.90;2.92;;;;;;;;;;4872000;29;20088;-83
2022/12/09 02:18:28;;;;;;;4.15;2.67;;;;;;;;;;4872855;29;20041;-82
2022/12/09 02:21:01;;;;;;;5.32;2.60;;;;;;;;;;4873272;29;20048;-81
2022/12/09 02:23:45;;;;;;;4.63;2.60;;;;;;;;;;4873171;29;20040;-81
2022/12/09 02:26:22;;;;;;;4.55;2.65;;;;;;;;;;4872717;29;20033;-82
2022/12/09 02:29:16;;;;;;;4.57;2.90;;;;;;;;;;4857772;29;20057;-83
2022/12/09 02:32:07;;;;;;;5.30;4.00;;;;;;;;;;4873306;29;20041;-81
2022/12/09 02:34:38;;;;;;;5.18;3.08;;;;;;;;;;4853455;29;20045;-82
2022/12/09 02:37:19;;;;;;;8.48;3.20;;;;;;;;;;4872093;29;20049;-82
2022/12/09 02:40:05;;;;;;;5.25;3.10;;;;;;;;;;4872737;29;20454;-81
2022/12/09 02:42:34;;;;;;;5.78;3.50;;;;;;;;;;4871990;29;20043;-81
2022/12/09 02:45:06;;;;;;;6.90;3.50;;;;;;;;;;4871931;29;20037;-82
2022/12/09 02:47:37;;;;;;;6.80;3.30;;;;;;;;;;4871930;29;20041;-82
2022/12/09 02:50:07;;;;;;;7.38;3.42;;;;;;;;;;4872159;29;20044;-81
2022/12/09 02:52:34;;;;;;;5.97;3.30;;;;;;;;;;4857517;29;20105;-82
2022/12/09 02:55:05;;;;;;;6.88;2.80;;;;;;;;;;4871966;29;20144;-82
2022/12/09 02:57:33;;;;;;;5.82;3.00;;;;;;;;;;4872280;29;20045;-80
2022/12/09 02:59:59;;;;;;;5.32;3.28;;;;;;;;;;4872679;29;20083;-80
2022/12/09 03:02:32;;;;;;;6.50;3.00;;;;;;;;;;4888133;29;20045;-83
2022/12/09 03:05:22;;;;;;;6.20;3.10;;;;;;;;;;4871639;29;20052;-82
2022/12/09 03:08:06;;;;;;;5.32;3.17;;;;;;;;;;4889263;29;20045;-82
2022/12/09 03:10:53;;;;;;;4.78;2.92;;;;;;;;;;4889347;29;20045;-82
2022/12/09 03:13:34;;;;;;;5.75;3.17;;;;;;;;;;4889827;29;20141;-81
2022/12/09 03:16:24;;;;;;;6.20;3.35;;;;;;;;;;4887493;29;20037;-81
2022/12/09 03:19:06;;;;;;;5.07;2.60;;;;;;;;;;4889829;29;20037;-81
2022/12/09 03:21:34;;;;;;;4.82;2.90;;;;;;;;;;4886048;29;20049;-82
2022/12/09 03:24:01;;;;;;;5.00;2.70;;;;;;;;;;4871636;29;20059;-82
2022/12/09 03:26:29;;;;;;;3.72;2.33;;;;;;;;;;4871930;29;20120;-82
2022/12/09 03:28:56;;;;;;;3.88;2.30;;;;;;;;;;4888201;29;20061;-83
2022/12/09 03:31:25;;;;;;;4.70;2.95;;;;;;;;;;4872214;29;20100;-82
2022/12/09 03:33:56;;;;;;;5.88;2.95;;;;;;;;;;4855645;29;20118;-81
2022/12/09 03:36:23;;;;;;;5.65;2.80;;;;;;;;;;4869846;29;20086;-81
2022/12/09 03:38:50;;;;;;;4.18;2.60;;;;;;;;;;4852611;29;20063;-81
2022/12/09 03:41:31;;;;;;;5.28;3.00;;;;;;;;;;4869258;29;20707;-81
2022/12/09 03:44:10;;;;;;;6.13;2.88;;;;;;;;;;4869276;29;20073;-82
2022/12/09 03:46:36;;;;;;;6.45;2.78;;;;;;;;;;4869367;29;20116;-81
2022/12/09 03:49:02;;;;;;;4.75;2.78;;;;;;;;;;4869246;29;20076;-82
2022/12/09 03:51:34;;;;;;;4.97;2.95;;;;;;;;;;4882866;29;20037;-82
2022/12/09 03:54:17;;;;;;;13.18;7.53;;;;;;;;;;4868457;29;20065;-79
2022/12/09 03:56:44;;;;;;;;;;;;;;;;;;4869857;29;20053;-82
2022/12/09 03:59:12;;;;;;;5.22;2.70;;;;;;;;;;4868768;29;19916;-81
2022/12/09 04:01:40;;;;;;;4.60;2.67;;;;;;;;;;4867873;29;20037;-82
2022/12/09 04:04:05;;;;;;;4.25;2.70;;;;;;;;;;4868872;29;20041;-82
2022/12/09 04:06:31;;;;;;;7.80;2.63;;;;;;;;;;4852036;29;20224;-82
2022/12/09 04:08:56;;;;;;;4.78;2.45;;;;;;;;;;4851605;29;20045;-81
2022/12/09 04:11:22;;;;;;;4.90;2.40;;;;;;;;;;4882657;29;20034;-81
2022/12/09 04:13:47;;;;;;;4.80;2.60;;;;;;;;;;4867574;29;20097;-82
2022/12/09 04:16:13;;;;;;;5.18;2.70;;;;;;;;;;4882803;29;20558;-81
2022/12/09 04:18:38;;;;;;;4.28;2.58;;;;;;;;;;4883097;29;20045;-81
2022/12/09 04:21:06;;;;;;;4.97;2.80;;;;;;;;;;4868892;29;20074;-82
2022/12/09 04:23:31;;;;;;;5.07;2.88;;;;;;;;;;4852684;29;20049;-81
2022/12/09 04:25:57;;;;;;;4.20;2.58;;;;;;;;;;4868791;29;20093;-82
2022/12/09 04:28:22;;;;;;;3.63;2.30;;;;;;;;;;4882730;29;20044;-82
2022/12/09 04:30:48;;;;;;;4.90;2.78;;;;;;;;;;4868150;29;20040;-82
2022/12/09 04:33:13;;;;;;;5.15;2.72;;;;;;;;;;4851621;29;20206;-81
2022/12/09 04:35:39;;;;;;;4.68;2.40;;;;;;;;;;4882255;29;20041;-81
2022/12/09 04:38:04;;;;;;;4.43;2.72;;;;;;;;;;4868554;29;20388;-81
2022/12/09 04:40:29;;;;;;;4.30;2.70;;;;;;;;;;4868482;29;20033;-80
2022/12/09 04:42:56;;;;;;;4.50;2.80;;;;;;;;;;4883811;29;20033;-82
2022/12/09 04:45:22;;;;;;;4.07;2.55;;;;;;;;;;4882163;29;20076;-82
2022/12/09 04:47:48;;;;;;;5.05;3.25;;;;;;;;;;4868390;29;20391;-82
2022/12/09 04:50:13;;;;;;;5.18;3.30;;;;;;;;;;4851579;29;20041;-81
2022/12/09 04:52:39;;;;;;;6.20;3.20;;;;;;;;;;4851752;29;20038;-82
2022/12/09 04:55:05;;;;;;;6.55;3.30;;;;;;;;;;4850640;29;20133;-82
2022/12/09 04:57:31;;;;;;;5.40;2.90;;;;;;;;;;4868097;29;20037;-82
2022/12/09 04:59:56;;;;;;;6.00;3.53;;;;;;;;;;4882206;29;20503;-82
2022/12/09 05:02:22;;;;;;;7.32;3.28;;;;;;;;;;4868215;29;20034;-81
2022/12/09 05:04:47;;;;;;;6.45;3.35;;;;;;;;;;4871793;29;20033;-82
2022/12/09 05:07:13;;;;;;;6.65;3.38;;;;;;;;;;4857976;29;20041;-82
2022/12/09 05:09:38;;;;;;;5.47;3.53;;;;;;;;;;4857877;29;20048;-81
2022/12/09 05:12:04;;;;;;;7.47;3.65;;;;;;;;;;4857536;29;20040;-81
2022/12/09 05:14:30;;;;;;;6.65;3.28;;;;;;;;;;4856350;29;20070;-81
2022/12/09 05:16:55;;;;;;;6.68;4.07;;;;;;;;;;4872820;29;20072;-82
2022/12/09 05:19:21;;;;;;;8.57;4.70;;;;;;;;;;4857935;29;20044;-81
2022/12/09 05:21:46;;;;;;;7.70;4.50;;;;;;;;;;4874578;29;20051;-82
2022/12/09 05:24:12;;;;;;;8.82;4.47;;;;;;;;;;4887791;29;20041;-82
2022/12/09 05:26:37;;;;;;;10.73;4.90;;;;;;;;;;4873810;29;20041;-82
2022/12/09 05:29:03;;;;;;;7.43;4.50;;;;;;;;;;4874553;29;20045;-81
2022/12/09 05:31:29;;;;;;;7.65;4.32;;;;;;;;;;4857988;29;20041;-80
2022/12/09 05:33:54;;;;;;;7.22;4.18;;;;;;;;;;4888854;29;20123;-81
2022/12/09 05:36:23;;;;;;;8.35;4.72;;;;;;;;;;4873374;29;20048;-81
2022/12/09 05:38:49;;;;;;;9.32;5.30;;;;;;;;;;4888341;29;20064;-82
2022/12/09 05:41:16;;;;;;;9.55;5.18;;;;;;;;;;4857358;29;20044;-81
2022/12/09 05:43:41;;;;;;;9.15;4.65;;;;;;;;;;4889316;29;20076;-83
2022/12/09 05:46:07;;;;;;;13.10;5.65;;;;;;;;;;4873858;29;20029;-82
2022/12/09 05:48:33;;;;;;;8.60;4.75;;;;;;;;;;4887202;29;20097;-83
2022/12/09 05:51:00;;;;;;;11.25;5.65;;;;;;;;;;4889821;29;20043;-80
2022/12/09 05:53:27;;;;;;;9.18;5.32;;;;;;;;;;4873833;29;20070;-81
2022/12/09 05:55:52;;;;;;;9.05;5.13;;;;;;;;;;4873289;29;20120;-82
2022/12/09 05:58:18;;;;;;;7.78;4.40;;;;;;;;;;4874113;29;20084;-82
2022/12/09 06:00:44;;;;;;;6.82;3.97;;;;;;;;;;4874254;29;20480;-82
2022/12/09 06:03:09;;;;;;;6.35;4.00;;;;;;;;;;4858099;29;20061;-83
2022/12/09 06:05:36;;;;;;;8.57;4.00;;;;;;;;;;4873238;29;20041;-81
2022/12/09 06:08:01;;;;;;;9.77;5.40;;;;;;;;;;4874454;29;20033;-81
2022/12/09 06:10:27;;;;;;;11.23;5.40;;;;;;;;;;4888333;29;20048;-82
2022/12/09 06:12:53;;;;;;;12.25;6.45;;;;;;;;;;4873663;29;20041;-81
2022/12/09 06:15:19;;;;;;;12.95;6.47;;;;;;;;;;4872278;29;20048;-82
2022/12/09 06:17:44;;;;;;;13.10;6.55;;;;;;;;;;4869967;29;20037;-81
2022/12/09 06:20:10;;;;;;;12.88;5.30;;;;;;;;;;4908459;29;20032;-81
2022/12/09 06:22:35;;;;;;;12.10;5.82;;;;;;;;;;4892285;29;20129;-82
2022/12/09 06:25:01;;;;;;;13.52;7.05;;;;;;;;;;4910069;29;20048;-82
2022/12/09 06:27:26;;;;;;;19.10;9.52;;;;;;;;;;4910971;29;20047;-82
2022/12/09 06:29:52;;;;;;;16.67;9.10;;;;;;;;;;4910683;29;20040;-82
2022/12/09 06:32:17;;;;;;;11.50;6.75;;;;;;;;;;4877970;29;20387;-81
2022/12/09 06:34:43;;;;;;;12.38;6.50;;;;;;;;;;4892596;29;20112;-82
2022/12/09 06:37:08;;;;;;;13.10;7.47;;;;;;;;;;4876889;29;20047;-82
2022/12/09 06:39:34;;;;;;;14.05;7.68;;;;;;;;;;4892513;29;20051;-81
2022/12/09 06:41:59;;;;;;;14.25;8.20;;;;;;;;;;4892473;29;20037;-80
2022/12/09 06:44:25;;;;;;;13.13;8.05;;;;;;;;;;4911678;29;20039;-82
2022/12/09 06:46:50;;;;;;;14.32;8.13;;;;;;;;;;4892237;29;20151;-82
2022/12/09 06:49:16;;;;;;;15.65;9.20;;;;;;;;;;4909853;29;20044;-81
2022/12/09 06:51:41;;;;;;;11.00;6.05;;;;;;;;;;4908859;29;20032;-80
2022/12/09 06:54:08;;;;;;;10.32;5.45;;;;;;;;;;4892361;29;20410;-80
2022/12/09 06:56:37;;;;;;;8.93;5.35;;;;;;;;;;4892562;29;20043;-79
2022/12/09 06:59:06;;;;;;;8.77;5.35;;;;;;;;;;4907149;29;20041;-82
2022/12/09 07:01:31;;;;;;;10.02;5.43;;;;;;;;;;4875766;29;20076;-82
2022/12/09 07:03:57;;;;;;;17.23;9.85;;;;;;;;;;4907972;29;20048;-81
2022/12/09 07:06:39;;;;;;;19.67;11.32;;;;;;;;;;4909047;29;20036;-82
2022/12/09 07:09:09;;;;;;;12.57;7.78;;;;;;;;;;4891935;29;20044;-83
2022/12/09 07:11:34;;;;;;;14.65;7.70;;;;;;;;;;4908545;29;20095;-82
2022/12/09 07:14:00;;;;;;;11.73;7.07;;;;;;;;;;4873882;29;20077;-81
2022/12/09 07:16:26;;;;;;;12.82;6.82;;;;;;;;;;4889164;29;20406;-80
2022/12/09 07:18:52;;;;;;;11.20;6.40;;;;;;;;;;4889549;29;20108;-81
2022/12/09 07:21:19;;;;;;;12.00;6.65;;;;;;;;;;4887980;29;20380;-81
2022/12/09 07:23:45;;;;;;;14.40;7.35;;;;;;;;;;4889103;29;20066;-81
2022/12/09 07:26:11;;;;;;;13.45;6.70;;;;;;;;;;4887975;29;20513;-81
2022/12/09 07:28:38;;;;;;;13.55;6.97;;;;;;;;;;4904907;29;20376;-81
2022/12/09 07:31:05;;;;;;;14.23;6.93;;;;;;;;;;4906730;29;20036;-81
2022/12/09 07:33:30;;;;;;;14.23;7.47;;;;;;;;;;4887581;29;20399;-80
2022/12/09 07:35:57;;;;;;;11.77;6.97;;;;;;;;;;4889197;29;20033;-80
2022/12/09 07:38:24;;;;;;;12.65;7.28;;;;;;;;;;4890341;29;20119;-78
2022/12/09 07:40:51;;;;;;;13.52;7.15;;;;;;;;;;4891002;29;20033;-81
2022/12/09 07:43:16;;;;;;;11.10;6.60;;;;;;;;;;4890182;29;20035;-80
2022/12/09 07:45:43;;;;;;;13.27;6.70;;;;;;;;;;4875654;29;20032;-81
2022/12/09 07:48:09;;;;;;;11.63;6.88;;;;;;;;;;4891765;29;20064;-82
2022/12/09 07:50:35;;;;;;;13.63;6.93;;;;;;;;;;4907616;29;20044;-82
2022/12/09 07:53:00;;;;;;;15.70;8.23;;;;;;;;;;4907425;29;20123;-78
2022/12/09 07:55:26;;;;;;;17.90;8.75;;;;;;;;;;4889874;29;20031;-82
2022/12/09 07:57:51;;;;;;;16.05;9.15;;;;;;;;;;4906476;29;20056;-82
2022/12/09 08:00:18;;;;;;;16.30;8.02;;;;;;;;;;4874757;29;20048;-82
2022/12/09 08:02:43;;;;;;;16.13;8.45;;;;;;;;;;4905162;29;20115;-81
2022/12/09 08:05:09;;;;;;;14.90;8.18;;;;;;;;;;4903566;29;20510;-81
2022/12/09 08:07:34;;;;;;;20.20;9.80;;;;;;;;;;4903507;29;20025;-80
2022/12/09 08:10:00;;;;;;;20.40;11.30;;;;;;;;;;4903656;29;20092;-81
2022/12/09 08:12:25;;;;;;;16.38;9.63;;;;;;;;;;4903208;29;20041;-81
2022/12/09 08:14:51;;;;;;;16.13;9.80;;;;;;;;;;4886228;29;20100;-78
2022/12/09 08:17:16;;;;;;;15.63;7.90;;;;;;;;;;4904488;29;20052;-82
2022/12/09 08:19:42;;;;;;;22.70;8.38;;;;;;;;;;4888375;29;20032;-81
2022/12/09 08:22:08;;;;;;;21.38;10.40;;;;;;;;;;4887835;29;20036;-79
2022/12/09 08:24:33;;;;;;;20.60;11.60;;;;;;;;;;4905043;29;20532;-81
2022/12/09 08:26:59;;;;;;;20.70;9.52;;;;;;;;;;4903668;29;20045;-82
2022/12/09 08:29:25;;;;;;;14.45;8.10;;;;;;;;;;4872377;29;20041;-81
2022/12/09 08:31:51;;;;;;;14.07;6.93;;;;;;;;;;4903687;29;20032;-82
2022/12/09 08:34:17;;;;;;;15.48;7.07;;;;;;;;;;4904240;29;20649;-81
2022/12/09 08:36:43;;;;;;;14.65;6.78;;;;;;;;;;4902232;29;20048;-79
2022/12/09 08:39:10;;;;;;;11.10;6.30;;;;;;;;;;4886958;29;20054;-83
2022/12/09 08:41:36;;;;;;;13.65;6.35;;;;;;;;;;4873142;29;20126;-80
2022/12/09 08:44:18;;;;;;;12.77;6.05;;;;;;;;;;4905119;29;20048;-80
2022/12/09 08:46:47;;;;;;;13.93;6.22;;;;;;;;;;4886742;29;20037;-81
2022/12/09 08:49:17;;;;;;;10.57;6.40;;;;;;;;;;4906058;29;20036;-82
2022/12/09 08:51:44;;;;;;;10.23;6.18;;;;;;;;;;4873325;29;20041;-82
2022/12/09 08:54:09;;;;;;;17.20;5.75;;;;;;;;;;4906288;29;20562;-81
2022/12/09 08:56:35;;;;;;;10.25;5.82;;;;;;;;;;4873631;29;20067;-81
2022/12/09 08:59:01;;;;;;;10.27;5.90;;;;;;;;;;4905789;29;20087;-81
2022/12/09 09:01:32;;;;;;;10.50;6.45;;;;;;;;;;4889294;29;20437;-81
2022/12/09 09:04:04;;;;;;;11.30;6.15;;;;;;;;;;4906149;29;20036;-80
2022/12/09 09:06:29;;;;;;;10.73;5.88;;;;;;;;;;4907081;29;20037;-81
2022/12/09 09:08:56;;;;;;;10.82;6.00;;;;;;;;;;4906204;29;20469;-81
2022/12/09 09:11:22;;;;;;;10.85;6.20;;;;;;;;;;4890474;29;20116;-81
2022/12/09 09:13:52;;;;;;;17.15;7.28;;;;;;;;;;4874746;29;20571;-80
2022/12/09 09:16:23;;;;;;;12.30;6.85;;;;;;;;;;4890140;29;20040;-81
2022/12/09 09:18:49;;;;;;;9.93;6.18;;;;;;;;;;4874252;29;20041;-82
2022/12/09 09:21:17;;;;;;;10.82;6.00;;;;;;;;;;4889929;29;20040;-81
2022/12/09 09:23:43;;;;;;;9.20;5.75;;;;;;;;;;4890066;29;20040;-82
2022/12/09 09:26:15;;;;;;;9.50;6.20;;;;;;;;;;4888472;29;20035;-81
2022/12/09 09:28:40;;;;;;;12.15;6.40;;;;;;;;;;4890184;29;20477;-81
2022/12/09 09:31:09;;;;;;;17.00;6.88;;;;;;;;;;4888868;29;20537;-82
2022/12/09 09:33:35;;;;;;;12.48;6.45;;;;;;;;;;4869988;29;20076;-82
2022/12/09 09:36:03;;;;;;;11.95;7.30;;;;;;;;;;4871422;29;20119;-85
2022/12/09 09:38:29;;;;;;;10.48;5.90;;;;;;;;;;4885569;29;20051;-83
2022/12/09 09:40:54;;;;;;;11.52;6.40;;;;;;;;;;4905375;29;20041;-82
2022/12/09 09:43:24;;;;;;;11.07;6.35;;;;;;;;;;4906882;29;20061;-82
2022/12/09 09:45:53;;;;;;;11.85;6.10;;;;;;;;;;4889552;29;20069;-81
2022/12/09 09:48:24;;;;;;;12.00;5.78;;;;;;;;;;4905095;29;20077;-81
2022/12/09 09:50:49;;;;;;;8.85;5.30;;;;;;;;;;4890990;29;20044;-82
2022/12/09 09:53:29;;;;;;;11.82;6.05;;;;;;;;;;4878243;29;20131;-81
2022/12/09 09:56:02;;;;;;;10.63;6.20;;;;;;;;;;4909997;29;20039;-82
2022/12/09 09:58:44;;;;;;;9.02;5.85;;;;;;;;;;4877046;29;20064;-81
2022/12/09 10:01:13;;;;;;;8.38;5.25;;;;;;;;;;4878410;29;20041;-82
2022/12/09 10:04:01;;;;;;;10.23;6.43;;;;;;;;;;4892661;29;20042;-81
2022/12/09 10:07:00;;;;;;;10.93;5.47;;;;;;;;;;4892786;29;20037;-82
2022/12/09 10:09:45;;;;;;;10.02;6.15;;;;;;;;;;4911162;29;20383;-82
2022/12/09 10:12:32;;;;;;;12.27;6.22;;;;;;;;;;4894867;29;20065;-82
2022/12/09 10:15:32;;;;;;;11.45;5.38;;;;;;;;;;4911679;29;20443;-81
2022/12/09 10:18:12;;;;;;;10.82;5.88;;;;;;;;;;4894446;29;20411;-82
2022/12/09 10:20:39;;;;;;;8.40;5.05;;;;;;;;;;4894897;29;20047;-82
2022/12/09 10:23:11;;;;;;;9.10;5.22;;;;;;;;;;4912154;29;20049;-82
2022/12/09 10:25:46;;;;;;;7.93;4.72;;;;;;;;;;4910145;29;20052;-81
2022/12/09 10:28:21;;;;;;;11.25;6.32;;;;;;;;;;4911690;29;20064;-82
2022/12/09 10:30:48;;;;;;;15.05;7.63;;;;;;;;;;4894748;29;20047;-82
2022/12/09 10:33:17;;;;;;;13.85;8.13;;;;;;;;;;4879576;29;20040;-82
2022/12/09 10:35:43;;;;;;;9.02;5.40;;;;;;;;;;4894612;29;20044;-82
2022/12/09 10:38:15;;;;;;;13.13;6.05;;;;;;;;;;4911938;29;20056;-82
2022/12/09 10:40:51;;;;;;;10.45;6.25;;;;;;;;;;4879264;29;20040;-82
2022/12/09 10:43:34;;;;;;;19.48;8.48;;;;;;;;;;4894510;29;20041;-82
2022/12/09 10:46:02;;;;;;;13.30;7.25;;;;;;;;;;4892121;29;20069;-82
2022/12/09 10:48:54;;;;;;;21.48;7.95;;;;;;;;;;4904954;29;20059;-82
2022/12/09 10:51:46;;;;;;;12.68;6.43;;;;;;;;;;4892831;29;20048;-83
2022/12/09 10:54:33;;;;;;;12.00;6.55;;;;;;;;;;4911310;29;20044;-82
2022/12/09 10:57:20;;;;;;;12.27;6.38;;;;;;;;;;4895432;29;20458;-81
2022/12/09 11:00:06;;;;;;;12.63;7.05;;;;;;;;;;4909935;29;20045;-82
2022/12/09 11:02:32;;;;;;;10.98;6.72;;;;;;;;;;4894876;29;20092;-82
2022/12/09 11:05:26;;;;;;;12.25;6.00;;;;;;;;;;4877964;29;20036;-82
2022/12/09 11:07:53;;;;;;;41.20;22.77;;;;;;;;;;4911570;29;20046;-81
2022/12/09 11:10:22;;;;;;;12.30;6.53;;;;;;;;;;4893115;29;20036;-81
2022/12/09 11:12:51;;;;;;;13.50;6.60;;;;;;;;;;4892898;29;20119;-81
2022/12/09 11:15:37;;;;;;;18.08;8.90;;;;;;;;;;4892714;29;20060;-82
2022/12/09 11:18:25;;;;;;;16.17;6.72;;;;;;;;;;4895298;29;20052;-82
2022/12/09 11:21:00;;;;;;;18.10;7.53;;;;;;;;;;4894013;29;20542;-83
2022/12/09 11:23:26;;;;;;;13.88;7.07;;;;;;;;;;4879267;29;20088;-82
2022/12/09 11:26:04;;;;;;;13.32;6.20;;;;;;;;;;4894586;29;20516;-82
2022/12/09 11:28:38;;;;;;;15.10;7.72;;;;;;;;;;4893480;29;20044;-81
2022/12/09 11:31:12;;;;;;;14.43;6.93;;;;;;;;;;4876937;29;20037;-81
2022/12/09 11:33:46;;;;;;;12.10;6.60;;;;;;;;;;4875722;29;20036;-82
2022/12/09 11:36:26;;;;;;;12.27;6.55;;;;;;;;;;4891666;29;20035;-82
2022/12/09 11:39:05;;;;;;;13.23;6.45;;;;;;;;;;4892883;29;20040;-82
2022/12/09 11:44:31;;;;;;;13.30;6.95;;;;;;;;;;4910226;29;20040;-82
2022/12/09 11:47:24;;;;;;;8.88;4.53;;;;;;;;;;4894009;29;20044;-81
2022/12/09 11:49:54;;;;;;;12.45;7.90;;;;;;;;;;4875108;29;20059;-82
2022/12/09 11:52:27;;;;;;;14.00;7.28;;;;;;;;;;4908167;29;20040;-82
2022/12/09 11:55:18;;;;;;;12.40;7.20;;;;;;;;;;4907876;29;20101;-81
2022/12/09 11:57:49;;;;;;;15.00;7.65;;;;;;;;;;4908368;29;20058;-81
2022/12/09 12:00:17;;;;;;;10.70;6.45;;;;;;;;;;4891641;29;20043;-82
2022/12/09 12:02:50;;;;;;;11.88;7.07;;;;;;;;;;4909084;29;20513;-81
2022/12/09 12:05:19;;;;;;;13.85;6.47;;;;;;;;;;4908060;29;20036;-81
2022/12/09 12:08:12;;;;;;;11.80;6.90;;;;;;;;;;4908599;29;20036;-82
2022/12/09 12:10:43;;;;;;;11.80;6.45;;;;;;;;;;4908519;29;20041;-81
2022/12/09 12:13:22;;;;;;;10.68;5.97;;;;;;;;;;4890918;29;20185;-81
2022/12/09 12:16:11;;;;;;;10.75;6.80;;;;;;;;;;4875686;29;20028;-82
2022/12/09 12:19:00;;;;;;;11.20;6.38;;;;;;;;;;4876572;29;20057;-82
2022/12/09 12:21:34;;;;;;;16.15;6.47;;;;;;;;;;4891884;29;20045;-81
2022/12/09 12:24:06;;;;;;;11.48;6.60;;;;;;;;;;4908237;29;20092;-82
2022/12/09 12:27:02;;;;;;;25.88;10.27;;;;;;;;;;4890841;29;20101;-82
2022/12/09 12:29:36;;;;;;;40.60;20.25;;;;;;;;;;4876247;29;20040;-82
2022/12/09 12:32:40;;;;;;;34.72;16.90;;;;;;;;;;4891501;29;20060;-82
2022/12/09 12:35:20;;;;;;;27.25;14.52;;;;;;;;;;4893596;29;20077;-81
2022/12/09 12:38:15;;;;;;;19.98;11.15;;;;;;;;;;4908742;29;20054;-82
2022/12/09 12:41:00;;;;;;;24.10;10.70;;;;;;;;;;4891047;29;20040;-80
2022/12/09 12:47:03;;;;;;;42.50;20.45;;;;;;;;;;4908205;29;20089;-81
2022/12/09 12:49:56;;;;;;;21.13;12.02;;;;;;;;;;4909198;29;20482;-80
2022/12/09 12:52:36;;;;;;;26.45;14.63;;;;;;;;;;4892214;29;20136;-81
2022/12/09 12:55:17;;;;;;;34.65;17.08;;;;;;;;;;4891439;29;20059;-81
2022/12/09 12:57:55;;;;;;;19.33;10.55;;;;;;;;;;4891454;29;20048;-80
2022/12/09 13:00:24;;;;;;;24.20;12.85;;;;;;;;;;4906619;29;20044;-81
2022/12/09 13:03:01;;;;;;;22.73;12.88;;;;;;;;;;4889267;29;20462;-80
2022/12/09 13:05:34;;;;;;;21.00;10.75;;;;;;;;;;4887152;29;20037;-81
2022/12/09 13:08:27;;;;;;;18.75;10.35;;;;;;;;;;4887566;29;20191;-81
2022/12/09 13:10:56;;;;;;;20.58;10.93;;;;;;;;;;4904604;29;20035;-81
2022/12/09 13:13:28;;;;;;;18.83;10.40;;;;;;;;;;4895772;29;20052;-80
2022/12/09 13:15:59;;;;;;;19.37;9.77;;;;;;;;;;4886840;29;20056;-81
2022/12/09 13:18:34;;;;;;;21.70;9.88;;;;;;;;;;4909000;23;20048;-83
2022/12/09 13:21:02;;;;;;;22.23;13.23;;;;;;;;;;4885703;29;20040;-82
2022/12/09 13:23:46;;;;;;;25.20;13.70;;;;;;;;;;4885672;29;20039;-83
2022/12/09 13:26:45;;;;;;;25.95;13.60;;;;;;;;;;4904545;29;20033;-84
2022/12/09 13:29:33;;;;;;;20.27;10.32;;;;;;;;;;4904157;29;20036;-82
2022/12/09 13:32:09;;;;;;;19.05;10.68;;;;;;;;;;4904103;29;20052;-83
2022/12/09 13:34:43;;;;;;;18.20;10.73;;;;;;;;;;4903014;29;20072;-82
2022/12/09 13:37:27;;;;;;;;;;;;;;;;;;4904801;29;20036;-83
2022/12/09 13:39:55;;;;;;;15.50;8.32;;;;;;;;;;4904079;29;19919;-83
2022/12/09 13:45:15;;;;;;;16.52;7.72;;;;;;;;;;4889047;29;20040;-83
2022/12/09 13:47:40;;;;;;;15.38;8.38;;;;;;;;;;4909600;29;20055;-85
2022/12/09 13:50:26;;;;;;;14.70;8.55;;;;;;;;;;4906595;29;20033;-85
2022/12/09 13:52:55;;;;;;;13.68;7.82;;;;;;;;;;4891483;29;20048;-84
2022/12/09 13:55:38;;;;;;;14.18;8.25;;;;;;;;;;4907589;29;20406;-84
2022/12/09 13:58:26;;;;;;;19.13;9.63;;;;;;;;;;4906683;29;20047;-85
2022/12/09 14:01:27;;;;;;;17.90;8.95;;;;;;;;;;4887398;29;20044;-86
2022/12/09 14:03:55;;;;;;;16.65;8.55;;;;;;;;;;4888093;29;20060;-84
2022/12/09 14:06:27;;;;;;;39.30;20.00;;;;;;;;;;4888357;29;20037;-85
2022/12/09 14:08:58;;;;;;;15.02;8.95;;;;;;;;;;4908262;29;20060;-85
2022/12/09 14:11:35;;;;;;;20.95;12.00;;;;;;;;;;4906963;29;20040;-85
2022/12/09 14:14:24;;;;;;;20.15;10.30;;;;;;;;;;4905494;29;20055;-84
2022/12/09 14:16:51;;;;;;;16.55;8.57;;;;;;;;;;4894074;29;20048;-85
2022/12/09 14:19:23;;;;;;;18.00;8.60;;;;;;;;;;4889216;29;20060;-84
2022/12/09 14:22:18;;;;;;;13.77;7.75;;;;;;;;;;4906776;29;20040;-84
2022/12/09 14:24:43;;;;;;;17.48;8.18;;;;;;;;;;4890713;29;20064;-84
2022/12/09 14:27:12;;;;;;;17.17;8.73;;;;;;;;;;4907473;29;20024;-84
2022/12/09 14:29:49;;;;;;;18.30;9.88;;;;;;;;;;4890925;29;20387;-84
2022/12/09 14:32:35;;;;;;;16.65;8.23;;;;;;;;;;4906699;29;20060;-84
2022/12/09 14:35:10;;;;;;;15.57;8.27;;;;;;;;;;4905953;29;20044;-83
2022/12/09 14:37:41;;;;;;;16.58;8.63;;;;;;;;;;4887836;29;20118;-83
2022/12/09 14:40:12;;;;;;;14.30;8.13;;;;;;;;;;4907531;29;20148;-84
2022/12/09 14:42:52;;;;;;;17.02;8.35;;;;;;;;;;4889408;29;20068;-83
2022/12/09 14:45:34;;;;;;;15.73;8.80;;;;;;;;;;4888183;29;20122;-83
2022/12/09 14:48:07;;;;;;;14.77;8.47;;;;;;;;;;4888636;29;20037;-85
2022/12/09 14:50:37;;;;;;;14.93;8.60;;;;;;;;;;4888403;29;20288;-83
2022/12/09 14:53:06;;;;;;;14.80;8.05;;;;;;;;;;4907085;29;20044;-83
2022/12/09 14:55:39;;;;;;;15.82;8.70;;;;;;;;;;4906751;29;20044;-83
2022/12/09 14:58:05;;;;;;;17.10;8.50;;;;;;;;;;4907430;29;20056;-83
2022/12/09 15:00:33;;;;;;;17.35;8.63;;;;;;;;;;4906982;29;20029;-83
2022/12/09 15:03:00;;;;;;;17.58;8.50;;;;;;;;;;4907550;29;20040;-83
2022/12/09 15:05:27;;;;;;;16.40;9.00;;;;;;;;;;4889998;29;20119;-84
2022/12/09 15:07:53;;;;;;;13.75;7.72;;;;;;;;;;4906906;29;20048;-83